Time;durP1;ratioP1;P1;durP2;ratioP2;P2;SDS_P1;SDS_P2;PMS_P1;PMS_P2;Temp;Humidity;BMP_temperature;BMP_pressure;BME280_temperature;BME280_humidity;BME280_pressure;Samples;Min_cycle;Max_cycle;Signal;HPM_P1;HPM_P2
2022/04/09 00:01:04;;;;;;;15.93;2.35;;;3.00;99.90;;;;;;5125733;27;20047;-70
2022/04/09 00:03:29;;;;;;;13.48;2.58;;;2.90;99.90;;;;;;5139026;27;20119;-69
2022/04/09 00:05:55;;;;;;;17.17;2.40;;;2.90;99.90;;;;;;5139031;27;20110;-69
2022/04/09 00:08:21;;;;;;;11.82;2.50;;;2.80;99.90;;;;;;5135175;27;20507;-68
2022/04/09 00:10:46;;;;;;;17.65;2.50;;;2.80;99.90;;;;;;5139105;27;20035;-68
2022/04/09 00:13:12;;;;;;;13.30;2.30;;;2.80;99.90;;;;;;5138195;27;20034;-70
2022/04/09 00:15:38;;;;;;;9.07;2.33;;;2.90;99.90;;;;;;5137884;27;20042;-70
2022/04/09 00:18:03;;;;;;;10.55;2.58;;;3.00;99.90;;;;;;5130753;27;20787;-70
2022/04/09 00:20:29;;;;;;;14.48;2.40;;;3.00;99.90;;;;;;5125516;27;20054;-68
2022/04/09 00:22:55;;;;;;;12.90;2.33;;;3.00;99.90;;;;;;5125949;27;20028;-68
2022/04/09 00:25:24;;;;;;;15.00;2.38;;;3.10;99.90;;;;;;5125687;27;20035;-70
2022/04/09 00:27:52;;;;;;;10.52;2.92;;;3.00;99.90;;;;;;5128341;27;20503;-68
2022/04/09 00:30:19;;;;;;;15.80;2.78;;;3.00;99.90;;;;;;5126104;27;20043;-69
2022/04/09 00:32:44;;;;;;;8.60;2.70;;;2.90;99.90;;;;;;5125859;27;20035;-70
2022/04/09 00:35:10;;;;;;;14.55;3.10;;;3.00;99.90;;;;;;5125776;27;20046;-69
2022/04/09 00:37:44;;;;;;;12.48;2.53;;;2.90;99.90;;;;;;5124909;27;20035;-70
2022/04/09 00:40:12;;;;;;;5.93;2.13;;;2.80;99.90;;;;;;5124546;27;20043;-69
2022/04/09 00:42:39;;;;;;;17.35;3.10;;;2.80;99.90;;;;;;5122481;27;20900;-70
2022/04/09 00:45:07;;;;;;;12.68;2.33;;;2.80;99.90;;;;;;5122697;27;20091;-69
2022/04/09 00:47:34;;;;;;;16.80;4.20;;;2.80;99.90;;;;;;5123667;27;20035;-69
2022/04/09 00:49:59;;;;;;;13.88;2.40;;;2.80;99.90;;;;;;5117357;27;20117;-68
2022/04/09 00:52:26;;;;;;;13.25;3.13;;;2.90;99.90;;;;;;5123847;27;20039;-69
2022/04/09 00:54:54;;;;;;;11.70;3.38;;;2.90;99.90;;;;;;5123929;27;20043;-69
2022/04/09 00:57:20;;;;;;;17.33;2.85;;;2.70;99.90;;;;;;5127242;27;20103;-69
2022/04/09 00:59:49;;;;;;;22.85;3.03;;;2.70;99.90;;;;;;5125496;27;20079;-70
2022/04/09 01:02:14;;;;;;;15.73;3.85;;;2.70;99.90;;;;;;5122110;27;20046;-69
2022/04/09 01:04:43;;;;;;;14.25;2.90;;;2.60;99.90;;;;;;5124201;27;20043;-68
2022/04/09 01:07:09;;;;;;;14.30;2.65;;;2.70;99.90;;;;;;5119682;27;20126;-70
2022/04/09 01:09:34;;;;;;;7.95;3.42;;;2.70;99.90;;;;;;5116482;27;20143;-69
2022/04/09 01:12:02;;;;;;;14.65;3.92;;;2.70;99.90;;;;;;5122611;27;20030;-70
2022/04/09 01:14:29;;;;;;;19.15;3.38;;;2.70;99.90;;;;;;5117030;27;20119;-70
2022/04/09 01:16:55;;;;;;;10.40;2.88;;;2.80;99.90;;;;;;5121896;27;20043;-68
2022/04/09 01:19:21;;;;;;;14.35;2.80;;;2.80;99.90;;;;;;5122635;27;20054;-69
2022/04/09 01:21:47;;;;;;;14.85;4.22;;;2.80;99.90;;;;;;5118239;27;20823;-69
2022/04/09 01:24:13;;;;;;;9.23;2.60;;;2.70;99.90;;;;;;5122735;27;20035;-69
2022/04/09 01:26:38;;;;;;;12.02;2.50;;;2.70;99.90;;;;;;5126285;27;20083;-70
2022/04/09 01:29:04;;;;;;;10.43;3.05;;;2.80;99.90;;;;;;5123159;27;20126;-70
2022/04/09 01:31:30;;;;;;;15.18;2.95;;;2.80;99.90;;;;;;5123712;27;20687;-68
2022/04/09 01:33:56;;;;;;;15.63;2.83;;;2.80;99.90;;;;;;5121323;27;20027;-70
2022/04/09 01:36:21;;;;;;;12.57;2.65;;;2.80;99.90;;;;;;5123844;27;20047;-69
2022/04/09 01:38:47;;;;;;;11.30;2.70;;;2.80;99.90;;;;;;5122858;27;20034;-70
2022/04/09 01:41:12;;;;;;;13.52;2.53;;;2.80;99.90;;;;;;5124208;27;20254;-70
2022/04/09 01:43:40;;;;;;;14.57;2.85;;;2.80;99.90;;;;;;5123020;27;20031;-69
2022/04/09 01:46:06;;;;;;;12.05;2.78;;;2.80;99.90;;;;;;5123585;27;20047;-70
2022/04/09 01:48:32;;;;;;;13.52;2.60;;;2.80;99.90;;;;;;5119449;27;20035;-69
2022/04/09 01:50:57;;;;;;;14.25;2.78;;;2.80;99.90;;;;;;5116628;27;20039;-69
2022/04/09 01:53:23;;;;;;;22.90;2.90;;;2.70;99.90;;;;;;5122755;27;20050;-69
2022/04/09 01:55:49;;;;;;;12.80;2.67;;;2.80;99.90;;;;;;5123649;27;20039;-69
2022/04/09 01:58:14;;;;;;;13.05;2.83;;;2.80;99.90;;;;;;5123336;27;20049;-69
2022/04/09 02:00:40;;;;;;;17.45;2.35;;;2.80;99.90;;;;;;5123106;27;20031;-69
2022/04/09 02:03:06;;;;;;;18.08;3.33;;;2.80;99.90;;;;;;5120617;27;20136;-68
2022/04/09 02:05:34;;;;;;;10.43;2.53;;;2.80;99.90;;;;;;5122806;27;20089;-68
2022/04/09 02:07:59;;;;;;;16.05;2.78;;;2.80;99.90;;;;;;5117395;27;20035;-69
2022/04/09 02:10:27;;;;;;;15.02;2.63;;;2.80;99.90;;;;;;5123633;27;20398;-69
2022/04/09 02:12:53;;;;;;;14.48;2.65;;;2.80;99.90;;;;;;5123889;27;20119;-69
2022/04/09 02:15:19;;;;;;;17.10;3.17;;;2.80;99.90;;;;;;5114496;27;20742;-70
2022/04/09 02:17:45;;;;;;;12.68;2.03;;;2.80;99.90;;;;;;5116848;27;20048;-69
2022/04/09 02:20:12;;;;;;;19.17;2.97;;;2.70;99.90;;;;;;5117891;27;20031;-68
2022/04/09 02:22:40;;;;;;;18.60;2.53;;;2.70;99.90;;;;;;5122772;27;20034;-68
2022/04/09 02:25:10;;;;;;;12.50;2.55;;;2.70;99.90;;;;;;5122503;27;20027;-69
2022/04/09 02:27:38;;;;;;;17.85;3.13;;;2.70;99.90;;;;;;5124429;27;20041;-70
2022/04/09 02:30:06;;;;;;;10.85;2.47;;;2.70;99.90;;;;;;5123335;27;20023;-69
2022/04/09 02:32:44;;;;;;;11.45;2.38;;;2.70;99.90;;;;;;5120653;27;20118;-68
2022/04/09 02:35:11;;;;;;;16.92;2.83;;;2.70;99.90;;;;;;5120997;27;20039;-69
2022/04/09 02:37:42;;;;;;;13.70;2.72;;;2.80;99.90;;;;;;5122348;27;20039;-68
2022/04/09 02:40:16;;;;;;;11.48;2.15;;;2.80;99.90;;;;;;5122178;27;20111;-69
2022/04/09 02:42:42;;;;;;;9.68;2.17;;;2.80;99.90;;;;;;5122266;27;20037;-69
2022/04/09 02:45:10;;;;;;;12.13;2.15;;;2.80;99.90;;;;;;5122244;27;20034;-69
2022/04/09 02:47:35;;;;;;;19.65;2.53;;;2.80;99.90;;;;;;5107239;27;20042;-69
2022/04/09 02:50:04;;;;;;;9.32;1.92;;;2.80;99.90;;;;;;5118023;27;20040;-69
2022/04/09 02:52:37;;;;;;;12.60;2.55;;;2.70;99.90;;;;;;5121689;27;20538;-68
2022/04/09 02:55:08;;;;;;;10.68;1.88;;;2.80;99.90;;;;;;5113818;27;20419;-69
2022/04/09 02:57:36;;;;;;;10.38;1.92;;;2.80;99.90;;;;;;5117989;27;20043;-69
2022/04/09 03:00:11;;;;;;;13.40;2.47;;;2.80;99.90;;;;;;5122913;27;20038;-66
2022/04/09 03:02:41;;;;;;;14.20;2.30;;;2.90;99.90;;;;;;5113395;27;20059;-67
2022/04/09 03:05:07;;;;;;;11.27;2.50;;;2.80;99.90;;;;;;5121520;28;20023;-67
2022/04/09 03:07:38;;;;;;;14.13;2.83;;;2.70;99.90;;;;;;5113691;27;20588;-67
2022/04/09 03:10:05;;;;;;;17.58;2.15;;;2.60;99.90;;;;;;5119543;27;20149;-67
2022/04/09 03:12:35;;;;;;;12.95;2.40;;;2.60;99.90;;;;;;5122489;27;20027;-67
2022/04/09 03:15:03;;;;;;;15.35;2.33;;;2.60;99.90;;;;;;5122168;27;20080;-67
2022/04/09 03:17:29;;;;;;;13.50;2.92;;;2.50;99.90;;;;;;5104757;27;20040;-67
2022/04/09 03:19:55;;;;;;;9.15;2.28;;;2.60;99.90;;;;;;5104073;28;20039;-67
2022/04/09 03:22:23;;;;;;;11.50;3.20;;;2.60;99.90;;;;;;5108585;27;20100;-67
2022/04/09 03:24:49;;;;;;;11.40;2.45;;;2.60;99.90;;;;;;5118098;28;20028;-68
2022/04/09 03:27:17;;;;;;;21.25;3.25;;;2.60;99.90;;;;;;5117775;27;20027;-67
2022/04/09 03:29:43;;;;;;;16.52;3.20;;;2.60;99.90;;;;;;5121273;27;20019;-67
2022/04/09 03:32:15;;;;;;;10.27;3.22;;;2.50;99.90;;;;;;5120001;27;20031;-67
2022/04/09 03:34:43;;;;;;;14.65;3.85;;;2.50;99.90;;;;;;5120649;27;20040;-67
2022/04/09 03:37:14;;;;;;;8.75;2.85;;;2.50;99.90;;;;;;5122368;27;20118;-67
2022/04/09 03:39:44;;;;;;;15.15;3.78;;;2.60;99.90;;;;;;5121562;27;20043;-67
2022/04/09 03:42:10;;;;;;;10.30;3.50;;;2.60;99.90;;;;;;5122537;27;20043;-67
2022/04/09 03:44:36;;;;;;;20.00;3.55;;;2.60;99.90;;;;;;5117786;28;20050;-68
2022/04/09 03:47:05;;;;;;;16.20;3.95;;;2.60;99.90;;;;;;5120561;27;20655;-67
2022/04/09 03:49:39;;;;;;;16.75;4.53;;;2.60;99.90;;;;;;5116491;27;20739;-67
2022/04/09 03:52:07;;;;;;;14.82;4.75;;;2.60;99.90;;;;;;5113355;27;20042;-68
2022/04/09 03:54:35;;;;;;;20.27;5.63;;;2.60;99.90;;;;;;5123983;27;20043;-63
2022/04/09 03:57:06;;;;;;;12.82;3.47;;;2.60;99.90;;;;;;5128996;27;20264;-67
2022/04/09 03:59:38;;;;;;;17.13;3.67;;;2.60;99.90;;;;;;5126192;27;20043;-67
2022/04/09 04:02:07;;;;;;;8.60;3.53;;;2.60;99.90;;;;;;5125205;27;20039;-67
2022/04/09 04:04:37;;;;;;;13.85;3.70;;;2.60;99.90;;;;;;5123852;27;20041;-67
2022/04/09 04:07:07;;;;;;;15.23;4.00;;;2.60;99.90;;;;;;5118978;27;20543;-67
2022/04/09 04:09:37;;;;;;;14.88;3.55;;;2.50;99.90;;;;;;5123413;27;20031;-67
2022/04/09 04:12:13;;;;;;;14.85;5.05;;;2.50;99.90;;;;;;5125538;27;20030;-67
2022/04/09 04:14:38;;;;;;;10.80;3.70;;;2.50;99.90;;;;;;5125519;27;20047;-67
2022/04/09 04:17:12;;;;;;;14.68;4.53;;;2.50;99.90;;;;;;5124270;27;20050;-68
2022/04/09 04:19:39;;;;;;;15.07;4.40;;;2.50;99.90;;;;;;5125970;27;20057;-67
2022/04/09 04:22:08;;;;;;;19.52;4.70;;;2.40;99.90;;;;;;5125880;27;20038;-67
2022/04/09 04:24:37;;;;;;;11.93;2.90;;;2.30;99.90;;;;;;5119438;27;20035;-67
2022/04/09 04:27:07;;;;;;;9.43;3.33;;;2.30;99.90;;;;;;5127370;27;20050;-67
2022/04/09 04:29:38;;;;;;;17.70;4.55;;;2.30;99.90;;;;;;5116375;27;20046;-67
2022/04/09 04:32:07;;;;;;;9.48;2.97;;;2.30;99.90;;;;;;5123050;27;20045;-67
2022/04/09 04:34:35;;;;;;;6.53;2.40;;;2.20;99.90;;;;;;5110385;27;20042;-67
2022/04/09 04:37:09;;;;;;;6.43;2.35;;;2.30;99.90;;;;;;5121410;27;20394;-67
2022/04/09 04:39:38;;;;;;;5.70;2.45;;;2.20;99.90;;;;;;5116561;27;20529;-66
2022/04/09 04:42:07;;;;;;;9.13;1.90;;;2.10;99.90;;;;;;5124339;27;20031;-67
2022/04/09 04:44:35;;;;;;;7.85;2.30;;;2.20;99.90;;;;;;5123391;27;20073;-67
2022/04/09 04:47:04;;;;;;;10.18;3.22;;;2.20;99.90;;;;;;5124417;27;20133;-67
2022/04/09 04:49:32;;;;;;;8.52;2.75;;;2.20;99.90;;;;;;5118655;27;20031;-66
2022/04/09 04:52:06;;;;;;;7.88;2.83;;;2.20;99.90;;;;;;5125635;27;20372;-66
2022/04/09 04:54:37;;;;;;;12.93;3.10;;;2.20;99.90;;;;;;5103476;28;20130;-67
2022/04/09 04:57:10;;;;;;;9.60;2.67;;;2.20;99.90;;;;;;5117331;27;20031;-67
2022/04/09 04:59:43;;;;;;;11.95;2.80;;;2.20;99.90;;;;;;5116643;27;20478;-67
2022/04/09 05:02:11;;;;;;;7.72;2.55;;;2.10;99.90;;;;;;5114756;27;20518;-67
2022/04/09 05:04:45;;;;;;;7.43;3.05;;;2.10;99.90;;;;;;5118051;27;20594;-67
2022/04/09 05:07:10;;;;;;;8.98;2.70;;;2.00;99.90;;;;;;5118634;27;20754;-66
2022/04/09 05:09:36;;;;;;;8.90;3.03;;;2.00;99.90;;;;;;5117103;27;20031;-67
2022/04/09 05:12:11;;;;;;;6.60;2.50;;;2.00;99.90;;;;;;5113927;27;20177;-67
2022/04/09 05:14:44;;;;;;;3.42;2.28;;;2.00;99.90;;;;;;5111370;27;20038;-67
2022/04/09 05:17:12;;;;;;;3.85;1.92;;;2.00;99.90;;;;;;5114359;27;20092;-67
2022/04/09 05:19:38;;;;;;;6.70;2.35;;;2.00;99.90;;;;;;5113725;27;20043;-67
2022/04/09 05:22:07;;;;;;;3.67;2.20;;;2.10;99.90;;;;;;5114176;27;20044;-67
2022/04/09 05:24:35;;;;;;;2.83;1.73;;;2.10;99.90;;;;;;5113985;27;20548;-67
2022/04/09 05:27:12;;;;;;;2.63;1.60;;;2.10;99.90;;;;;;5109900;27;20096;-67
2022/04/09 05:29:42;;;;;;;4.55;1.92;;;2.00;99.90;;;;;;5110892;27;20035;-67
2022/04/09 05:32:14;;;;;;;5.40;2.65;;;1.90;99.90;;;;;;5091474;27;20035;-67
2022/04/09 05:34:40;;;;;;;7.28;3.95;;;2.00;99.90;;;;;;5113721;27;20123;-67
2022/04/09 05:37:10;;;;;;;7.40;2.85;;;2.00;99.90;;;;;;5117334;27;20065;-67
2022/04/09 05:39:35;;;;;;;11.15;4.10;;;2.10;99.90;;;;;;5118250;27;20038;-68
2022/04/09 05:42:01;;;;;;;10.85;4.13;;;2.10;99.90;;;;;;5121717;27;20446;-67
2022/04/09 05:44:31;;;;;;;13.10;4.57;;;2.20;99.90;;;;;;5114354;27;20070;-67
2022/04/09 05:47:00;;;;;;;10.25;4.13;;;2.30;99.90;;;;;;5122474;27;20043;-67
2022/04/09 05:49:37;;;;;;;18.02;5.07;;;2.40;99.90;;;;;;5124443;27;20504;-67
2022/04/09 05:52:02;;;;;;;;;;;2.40;99.90;;;;;;5124361;27;20063;-68
2022/04/09 05:54:31;;;;;;;14.20;5.80;;;2.30;99.90;;;;;;5123691;27;19965;-66
2022/04/09 05:57:02;;;;;;;7.40;4.20;;;2.30;99.90;;;;;;5126114;27;20035;-66
2022/04/09 05:59:31;;;;;;;7.53;3.95;;;2.30;99.90;;;;;;5123209;27;20035;-67
2022/04/09 06:02:02;;;;;;;10.90;3.72;;;2.30;99.90;;;;;;5122549;27;20066;-68
2022/04/09 06:04:29;;;;;;;6.40;3.63;;;2.30;99.90;;;;;;5122842;27;20031;-68
2022/04/09 06:06:55;;;;;;;10.85;3.85;;;2.40;99.90;;;;;;5124136;27;20122;-68
2022/04/09 06:09:24;;;;;;;13.40;4.40;;;2.40;99.90;;;;;;5131112;27;20115;-69
2022/04/09 06:11:53;;;;;;;11.80;4.32;;;2.40;99.90;;;;;;5115538;27;20101;-69
2022/04/09 06:14:24;;;;;;;11.50;3.85;;;2.40;99.90;;;;;;5122224;27;20480;-68
2022/04/09 06:16:52;;;;;;;13.18;3.88;;;2.40;99.90;;;;;;5110963;27;20736;-67
2022/04/09 06:19:18;;;;;;;12.13;3.75;;;2.40;99.90;;;;;;5113018;27;20138;-67
2022/04/09 06:21:44;;;;;;;11.45;4.85;;;2.30;99.90;;;;;;5123513;27;20542;-67
2022/04/09 06:24:10;;;;;;;13.05;4.68;;;2.30;99.90;;;;;;5114314;27;20039;-64
2022/04/09 06:26:38;;;;;;;10.45;4.35;;;2.40;99.90;;;;;;5116569;27;20047;-66
2022/04/09 06:29:07;;;;;;;10.50;4.85;;;2.40;99.90;;;;;;5112175;27;20038;-65
2022/04/09 06:31:35;;;;;;;10.85;5.05;;;2.30;99.90;;;;;;5121312;27;20035;-64
2022/04/09 06:34:06;;;;;;;10.05;4.18;;;2.30;99.90;;;;;;5122334;27;20453;-66
2022/04/09 06:36:34;;;;;;;13.45;4.05;;;2.30;99.90;;;;;;5122626;27;20042;-67
2022/04/09 06:39:00;;;;;;;11.73;5.20;;;2.40;99.90;;;;;;5117505;27;20039;-68
2022/04/09 06:41:33;;;;;;;17.02;5.07;;;2.40;99.90;;;;;;5112041;27;20044;-67
2022/04/09 06:44:02;;;;;;;13.77;4.88;;;2.40;99.90;;;;;;5118249;27;20063;-66
2022/04/09 06:46:28;;;;;;;11.25;4.50;;;2.50;99.90;;;;;;5119075;27;20043;-67
2022/04/09 06:48:56;;;;;;;21.33;6.50;;;2.50;99.90;;;;;;5119187;27;20115;-68
2022/04/09 06:51:24;;;;;;;18.10;4.68;;;2.70;99.90;;;;;;5122817;27;20099;-67
2022/04/09 06:53:53;;;;;;;14.38;5.03;;;3.00;99.90;;;;;;5114826;27;20658;-67
2022/04/09 06:56:37;;;;;;;;;;;3.30;99.90;;;;;;5122969;27;20042;-70
2022/04/09 06:59:04;;;;;;;12.00;3.83;;;3.50;99.90;;;;;;5128476;27;20014;-71
2022/04/09 07:01:30;;;;;;;13.80;4.95;;;3.30;99.90;;;;;;5123071;27;20035;-69
2022/04/09 07:03:56;;;;;;;10.32;4.32;;;3.20;99.90;;;;;;5114804;27;20171;-68
2022/04/09 07:06:22;;;;;;;12.50;4.72;;;2.90;99.90;;;;;;5117139;27;20071;-69
2022/04/09 07:08:47;;;;;;;9.70;3.88;;;2.90;99.90;;;;;;5115672;27;20169;-73
2022/04/09 07:11:13;;;;;;;7.30;3.33;;;2.90;99.90;;;;;;5117575;28;20035;-73
2022/04/09 07:13:39;;;;;;;11.52;4.63;;;2.70;99.90;;;;;;5119252;27;20058;-68
2022/04/09 07:16:05;;;;;;;11.20;2.70;;;2.60;99.90;;;;;;5118391;28;20067;-71
2022/04/09 07:18:30;;;;;;;5.15;3.25;;;2.40;99.90;;;;;;5120653;27;20031;-68
2022/04/09 07:20:56;;;;;;;7.28;3.10;;;2.40;99.90;;;;;;5122922;28;20039;-68
2022/04/09 07:23:21;;;;;;;5.53;3.00;;;2.60;99.90;;;;;;5121250;28;20167;-69
2022/04/09 07:25:47;;;;;;;4.82;2.47;;;3.00;99.90;;;;;;5120295;28;20438;-68
2022/04/09 07:28:13;;;;;;;4.60;2.20;;;3.20;99.90;;;;;;5126650;27;20710;-67
2022/04/09 07:30:41;;;;;;;4.40;2.40;;;3.80;99.90;;;;;;5125199;27;20046;-68
2022/04/09 07:33:07;;;;;;;5.88;2.28;;;4.00;99.90;;;;;;5120182;27;20035;-67
2022/04/09 07:35:35;;;;;;;5.03;2.22;;;4.10;99.90;;;;;;5123785;27;20765;-67
2022/04/09 07:38:00;;;;;;;6.03;2.67;;;3.90;99.90;;;;;;5123842;27;20675;-69
2022/04/09 07:40:29;;;;;;;8.27;2.60;;;3.80;99.90;;;;;;5121975;27;20164;-66
2022/04/09 07:42:57;;;;;;;6.47;2.33;;;3.40;99.90;;;;;;5124608;27;20038;-66
2022/04/09 07:45:24;;;;;;;6.88;2.92;;;3.40;99.90;;;;;;5116886;27;20043;-70
2022/04/09 07:47:59;;;;;;;13.27;3.58;;;3.10;99.90;;;;;;5115608;27;20055;-67
2022/04/09 07:50:25;;;;;;;11.75;3.60;;;3.30;99.90;;;;;;5125395;27;20132;-69
2022/04/09 07:52:52;;;;;;;7.82;3.40;;;3.60;99.90;;;;;;5124292;27;20117;-67
2022/04/09 07:55:17;;;;;;;13.85;3.40;;;4.00;99.90;;;;;;5114626;27;20046;-68
2022/04/09 07:57:45;;;;;;;13.90;3.20;;;4.50;99.90;;;;;;5119263;27;20039;-69
2022/04/09 08:00:11;;;;;;;10.57;3.40;;;4.40;99.90;;;;;;5120073;27;20038;-71
2022/04/09 08:02:37;;;;;;;14.00;3.30;;;4.60;99.90;;;;;;5115608;27;20131;-71
2022/04/09 08:05:04;;;;;;;16.45;3.88;;;4.50;99.90;;;;;;5121596;27;20618;-70
2022/04/09 08:07:29;;;;;;;17.92;3.83;;;4.30;99.90;;;;;;5119697;27;20039;-70
2022/04/09 08:09:55;;;;;;;15.10;4.47;;;4.20;99.90;;;;;;5119249;27;20095;-68
2022/04/09 08:12:20;;;;;;;14.18;4.38;;;4.10;99.90;;;;;;5126527;27;20114;-70
2022/04/09 08:14:46;;;;;;;13.13;4.75;;;4.10;99.90;;;;;;5125689;27;20078;-70
2022/04/09 08:17:12;;;;;;;16.02;4.15;;;3.90;99.90;;;;;;5126295;27;20689;-72
2022/04/09 08:19:37;;;;;;;15.98;4.82;;;3.90;99.90;;;;;;5119921;27;20035;-71
2022/04/09 08:22:05;;;;;;;8.77;3.65;;;3.90;99.90;;;;;;5125920;27;20431;-76
2022/04/09 08:24:31;;;;;;;14.57;3.95;;;4.00;99.90;;;;;;5124824;27;20093;-73
2022/04/09 08:26:57;;;;;;;14.35;3.78;;;4.40;99.90;;;;;;5127748;27;20038;-70
2022/04/09 08:29:24;;;;;;;10.77;4.05;;;4.50;99.90;;;;;;5125737;27;20038;-72
2022/04/09 08:31:50;;;;;;;17.02;4.13;;;4.60;99.90;;;;;;5121068;27;20141;-74
2022/04/09 08:34:17;;;;;;;11.90;3.15;;;4.80;99.90;;;;;;5122410;27;20703;-70
2022/04/09 08:36:43;;;;;;;18.52;3.72;;;5.40;99.90;;;;;;5123821;27;20035;-69
2022/04/09 08:39:09;;;;;;;11.02;3.67;;;6.10;99.90;;;;;;5121037;27;20023;-70
2022/04/09 08:41:44;;;;;;;14.02;3.95;;;5.80;99.90;;;;;;5119164;27;20038;-68
2022/04/09 08:44:12;;;;;;;17.73;4.07;;;5.20;99.90;;;;;;5121087;27;20046;-68
2022/04/09 08:46:40;;;;;;;15.98;3.55;;;5.00;99.90;;;;;;5123929;27;20051;-69
2022/04/09 08:49:07;;;;;;;13.05;4.25;;;4.70;99.90;;;;;;5123829;27;20035;-69
2022/04/09 08:51:33;;;;;;;14.45;4.07;;;4.30;99.90;;;;;;5125119;27;20042;-69
2022/04/09 08:54:04;;;;;;;12.25;3.88;;;4.30;99.90;;;;;;5124178;27;20721;-68
2022/04/09 08:56:33;;;;;;;21.75;4.63;;;4.20;99.90;;;;;;5126107;27;20058;-69
2022/04/09 08:59:00;;;;;;;15.75;5.15;;;4.10;99.90;;;;;;5123288;27;20066;-69
2022/04/09 09:01:27;;;;;;;11.90;3.70;;;3.80;99.90;;;;;;5120124;27;20130;-69
2022/04/09 09:03:53;;;;;;;14.60;3.83;;;3.70;99.90;;;;;;5116791;27;20031;-69
2022/04/09 09:06:28;;;;;;;13.90;3.90;;;4.00;99.90;;;;;;5122114;27;20556;-68
2022/04/09 09:08:55;;;;;;;13.77;3.70;;;4.30;99.90;;;;;;5120934;27;20126;-68
2022/04/09 09:11:21;;;;;;;16.42;3.60;;;4.40;99.90;;;;;;5122384;27;20038;-68
2022/04/09 09:13:50;;;;;;;11.48;3.20;;;4.70;99.90;;;;;;5118099;27;20073;-69
2022/04/09 09:16:26;;;;;;;16.60;4.25;;;4.70;99.90;;;;;;5120313;27;20518;-66
2022/04/09 09:18:54;;;;;;;7.80;3.20;;;4.40;99.90;;;;;;5119179;27;20088;-68
2022/04/09 09:21:23;;;;;;;8.93;3.17;;;4.10;99.90;;;;;;5125578;27;20511;-68
2022/04/09 09:24:09;;;;;;;9.55;3.15;;;4.20;99.90;;;;;;5121894;27;20035;-68
2022/04/09 09:26:38;;;;;;;13.32;3.58;;;4.40;99.90;;;;;;5126151;27;20630;-67
2022/04/09 09:29:04;;;;;;;7.85;2.70;;;4.50;99.90;;;;;;5125610;27;20050;-71
2022/04/09 09:31:44;;;;;;;13.45;2.90;;;4.50;99.90;;;;;;5123491;27;20035;-69
2022/04/09 09:34:10;;;;;;;8.90;2.90;;;4.60;99.90;;;;;;5105795;27;20479;-69
2022/04/09 09:36:38;;;;;;;8.65;3.00;;;4.60;99.90;;;;;;5107649;27;20380;-69
2022/04/09 09:39:05;;;;;;;11.13;3.50;;;4.70;99.90;;;;;;5120445;27;20114;-70
2022/04/09 09:41:32;;;;;;;8.90;2.90;;;4.90;99.90;;;;;;5124604;27;20039;-70
2022/04/09 09:44:05;;;;;;;11.93;3.00;;;5.00;99.90;;;;;;5122989;27;20045;-69
2022/04/09 09:46:31;;;;;;;17.00;3.53;;;4.90;99.90;;;;;;5123808;27;20125;-70
2022/04/09 09:48:57;;;;;;;14.15;3.95;;;5.00;99.90;;;;;;5125065;27;20050;-69
2022/04/09 09:51:24;;;;;;;9.38;3.22;;;5.20;99.90;;;;;;5123258;27;20043;-70
2022/04/09 09:53:49;;;;;;;16.58;2.80;;;5.40;99.90;;;;;;5123316;27;20035;-68
2022/04/09 09:56:33;;;;;;;18.08;3.92;;;5.60;99.90;;;;;;5119446;27;20042;-71
2022/04/09 09:59:00;;;;;;;13.38;2.90;;;5.80;99.90;;;;;;5123511;27;20030;-68
2022/04/09 10:01:27;;;;;;;7.10;2.45;;;5.90;99.90;;;;;;5124052;27;20042;-68
2022/04/09 10:03:54;;;;;;;13.32;3.05;;;6.20;99.90;;;;;;5122013;27;20047;-67
2022/04/09 10:06:21;;;;;;;14.18;3.05;;;5.90;99.90;;;;;;5121289;27;20039;-67
2022/04/09 10:08:47;;;;;;;15.75;3.55;;;5.50;99.90;;;;;;5121596;27;20096;-67
2022/04/09 10:11:17;;;;;;;15.18;3.55;;;5.20;99.90;;;;;;5124467;27;20039;-67
2022/04/09 10:13:44;;;;;;;12.32;3.45;;;4.70;99.90;;;;;;5122554;27;20096;-67
2022/04/09 10:16:12;;;;;;;13.23;3.17;;;4.10;99.90;;;;;;5117423;27;20047;-67
2022/04/09 10:18:39;;;;;;;16.33;3.28;;;4.30;99.90;;;;;;5118401;27;20046;-68
2022/04/09 10:21:05;;;;;;;10.07;3.60;;;4.60;99.90;;;;;;5121094;27;20062;-67
2022/04/09 10:23:33;;;;;;;10.75;3.40;;;5.00;99.90;;;;;;5122306;27;20054;-68
2022/04/09 10:26:00;;;;;;;15.02;3.83;;;5.40;99.90;;;;;;5118841;27;20047;-69
2022/04/09 10:28:34;;;;;;;9.13;3.17;;;5.50;99.90;;;;;;5117952;27;20465;-68
2022/04/09 10:31:00;;;;;;;13.02;3.80;;;5.40;99.90;;;;;;5122538;27;20035;-69
2022/04/09 10:33:28;;;;;;;11.27;3.60;;;5.20;99.90;;;;;;5119971;27;21208;-69
2022/04/09 10:36:00;;;;;;;12.75;4.05;;;5.20;99.90;;;;;;5122068;27;20042;-68
2022/04/09 10:38:27;;;;;;;10.95;3.50;;;5.30;99.90;;;;;;5119268;27;20067;-69
2022/04/09 10:40:55;;;;;;;8.63;3.85;;;5.60;99.90;;;;;;5118004;27;20045;-68
2022/04/09 10:43:24;;;;;;;10.68;4.13;;;5.50;99.90;;;;;;5114982;27;20046;-69
2022/04/09 10:46:02;;;;;;;11.20;4.15;;;5.70;99.90;;;;;;5111691;27;20078;-69
2022/04/09 10:48:32;;;;;;;11.10;4.55;;;5.80;99.90;;;;;;5119293;27;20035;-69
2022/04/09 10:51:04;;;;;;;8.73;3.38;;;5.90;99.90;;;;;;5121159;27;20068;-67
2022/04/09 10:53:44;;;;;;;8.88;2.92;;;5.90;99.90;;;;;;5115627;27;20041;-67
2022/04/09 10:56:21;;;;;;;10.75;3.10;;;6.20;99.90;;;;;;5123895;27;20597;-67
2022/04/09 10:59:06;;;;;;;12.77;3.95;;;6.40;99.90;;;;;;5124416;27;20030;-66
2022/04/09 11:01:48;;;;;;;7.80;2.90;;;6.80;99.90;;;;;;5112294;27;20039;-66
2022/04/09 11:04:29;;;;;;;9.55;2.88;;;7.00;99.90;;;;;;5117085;27;20038;-66
2022/04/09 11:07:09;;;;;;;9.98;2.70;;;7.10;99.90;;;;;;5115887;27;20043;-67
2022/04/09 11:09:54;;;;;;;8.88;3.00;;;7.10;99.90;;;;;;5117024;28;20031;-67
2022/04/09 11:12:24;;;;;;;10.20;2.50;;;7.10;99.90;;;;;;5123793;27;20043;-64
2022/04/09 11:15:00;;;;;;;6.22;2.30;;;7.10;99.90;;;;;;5121531;28;20067;-67
2022/04/09 11:17:30;;;;;;;6.43;2.22;;;6.60;99.90;;;;;;5124265;27;20062;-67
2022/04/09 11:20:10;;;;;;;6.65;1.75;;;6.10;99.90;;;;;;5122458;28;20042;-67
2022/04/09 11:22:41;;;;;;;6.65;1.40;;;5.40;99.90;;;;;;5123844;27;20128;-67
2022/04/09 11:25:16;;;;;;;2.38;1.77;;;4.80;99.90;;;;;;5120301;27;20035;-67
2022/04/09 11:27:42;;;;;;;8.60;0.82;;;4.50;99.90;;;;;;5125918;27;20032;-67
2022/04/09 11:30:09;;;;;;;2.78;0.98;;;3.70;99.90;;;;;;5124879;27;20046;-67
2022/04/09 11:32:35;;;;;;;1.73;1.17;;;3.20;99.90;;;;;;5123705;27;20039;-67
2022/04/09 11:35:08;;;;;;;2.20;0.80;;;3.00;99.90;;;;;;5119725;27;20695;-67
2022/04/09 11:37:39;;;;;;;1.33;1.00;;;3.10;99.90;;;;;;5120555;27;20043;-67
2022/04/09 11:40:06;;;;;;;4.95;1.35;;;3.10;99.90;;;;;;5122632;27;20027;-67
2022/04/09 11:42:52;;;;;;;3.40;1.00;;;3.10;99.90;;;;;;5117723;27;20062;-67
2022/04/09 11:45:23;;;;;;;2.63;0.80;;;3.30;99.90;;;;;;5117485;28;20043;-67
2022/04/09 11:47:51;;;;;;;3.08;1.17;;;3.40;99.90;;;;;;5106384;27;20376;-67
2022/04/09 11:50:17;;;;;;;5.47;1.30;;;3.70;99.90;;;;;;5109397;27;20048;-69
2022/04/09 11:52:43;;;;;;;4.55;1.77;;;4.00;99.90;;;;;;5108556;28;20031;-68
2022/04/09 11:55:15;;;;;;;4.40;1.40;;;4.40;99.90;;;;;;5122162;27;20203;-69
2022/04/09 11:57:49;;;;;;;3.22;1.30;;;4.80;99.90;;;;;;5125225;27;20164;-69
2022/04/09 12:00:15;;;;;;;6.40;1.75;;;4.80;99.90;;;;;;5123518;27;20042;-70
2022/04/09 12:02:41;;;;;;;6.63;1.92;;;5.00;99.90;;;;;;5121637;28;20722;-66
2022/04/09 12:05:11;;;;;;;3.83;1.60;;;5.20;99.90;;;;;;5120943;28;20035;-69
2022/04/09 12:07:44;;;;;;;7.65;1.92;;;5.30;99.90;;;;;;5111720;27;20046;-69
2022/04/09 12:10:27;;;;;;;3.42;1.90;;;5.50;99.90;;;;;;5121967;27;20042;-69
2022/04/09 12:12:56;;;;;;;6.40;1.70;;;5.70;99.90;;;;;;5123055;27;20031;-69
2022/04/09 12:15:30;;;;;;;3.42;1.38;;;5.80;99.90;;;;;;5123114;27;20043;-69
2022/04/09 12:17:55;;;;;;;9.23;4.10;;;5.90;99.90;;;;;;5102875;28;20047;-69
2022/04/09 12:20:32;;;;;;;4.80;1.48;;;5.80;99.90;;;;;;5117758;27;20039;-69
2022/04/09 12:22:58;;;;;;;3.05;0.70;;;5.40;99.90;;;;;;5127379;27;20025;-69
2022/04/09 12:25:34;;;;;;;1.77;0.70;;;4.60;99.90;;;;;;5122285;27;20031;-69
2022/04/09 12:27:59;;;;;;;1.00;0.53;;;4.00;99.90;;;;;;5122877;27;20084;-68
2022/04/09 12:30:47;;;;;;;2.40;0.40;;;3.10;99.90;;;;;;5126472;27;20027;-67
2022/04/09 12:33:13;;;;;;;1.02;0.30;;;2.90;99.90;;;;;;5114708;27;20040;-67
2022/04/09 12:35:42;;;;;;;0.45;0.20;;;2.60;99.90;;;;;;5115603;27;20515;-66
2022/04/09 12:38:08;;;;;;;2.72;0.60;;;2.30;99.90;;;;;;5124192;27;20037;-69
2022/04/09 12:40:34;;;;;;;1.40;0.30;;;2.30;99.90;;;;;;5117590;27;20439;-69
2022/04/09 12:43:01;;;;;;;1.65;0.47;;;2.70;99.90;;;;;;5121518;27;20031;-69
2022/04/09 12:45:27;;;;;;;1.58;0.40;;;3.20;99.90;;;;;;5126309;27;20728;-67
2022/04/09 12:48:01;;;;;;;7.97;0.77;;;3.70;99.90;;;;;;5109744;27;20035;-67
2022/04/09 12:50:31;;;;;;;1.83;0.60;;;4.00;99.90;;;;;;5125589;27;20084;-69
2022/04/09 12:53:05;;;;;;;4.53;0.95;;;3.90;99.90;;;;;;5125096;27;20314;-69
2022/04/09 12:55:31;;;;;;;4.28;1.08;;;4.00;99.90;;;;;;5118505;27;20122;-69
2022/04/09 12:57:57;;;;;;;4.10;1.15;;;3.80;99.90;;;;;;5124876;27;20470;-69